Time;durP1;ratioP1;P1;durP2;ratioP2;P2;SDS_P1;SDS_P2;PMS_P1;PMS_P2;Temp;Humidity;BMP_temperature;BMP_pressure;BME280_temperature;BME280_humidity;BME280_pressure;Samples;Min_cycle;Max_cycle;Signal;HPM_P1;HPM_P2
2022/12/18 00:09:23;;;;;;;127.00;44.60;;;;;;;-0.74;92.96;101794.58;660911;1311;138881;-83
2022/12/18 00:24:33;;;;;;;78.50;28.10;;;;;;;-0.98;93.14;101812.83;660871;1311;138941;-83
2022/12/18 00:39:36;;;;;;;70.70;24.30;;;;;;;-1.20;93.33;101820.53;660839;1312;138743;-82
2022/12/18 00:54:39;;;;;;;73.40;26.60;;;;;;;-1.20;93.71;101842.33;660652;1302;138906;-82
2022/12/18 01:09:42;;;;;;;74.10;23.60;;;;;;;-1.20;93.70;101876.69;660786;1312;138520;-83
2022/12/18 01:24:46;;;;;;;58.60;21.80;;;;;;;-1.01;93.32;101879.85;660608;1295;138954;-82
2022/12/18 01:39:49;;;;;;;62.60;22.20;;;;;;;-0.92;93.03;101898.45;660749;1305;138484;-82
2022/12/18 01:54:56;;;;;;;64.80;21.30;;;;;;;-0.87;92.85;101909.20;660660;1312;140138;-82
2022/12/18 02:10:20;;;;;;;77.40;26.50;;;;;;;-1.04;93.14;101920.77;660638;1297;138468;-83
2022/12/18 02:25:41;;;;;;;73.30;24.80;;;;;;;-1.26;93.68;101935.83;660722;1312;138824;-83
2022/12/18 02:40:46;;;;;;;99.40;30.40;;;;;;;-1.13;93.65;101948.87;660546;1312;138662;-82
2022/12/18 02:56:05;;;;;;;73.00;26.40;;;;;;;-1.21;93.99;101954.48;660931;1312;138450;-82
2022/12/18 03:11:11;;;;;;;63.00;21.30;;;;;;;-1.07;94.04;101964.94;660833;1312;138704;-82
2022/12/18 03:26:19;;;;;;;86.10;31.00;;;;;;;-0.89;94.37;101979.83;660886;1312;139223;-82
2022/12/18 03:41:30;;;;;;;81.30;25.40;;;;;;;-1.00;94.09;102001.27;660840;1311;138652;-82
2022/12/18 03:56:57;;;;;;;81.50;27.50;;;;;;;-1.17;94.99;102018.98;661015;1312;139375;-83
2022/12/18 04:12:01;;;;;;;74.10;24.10;;;;;;;-1.19;95.11;102031.36;660787;1305;138561;-82
2022/12/18 04:27:06;;;;;;;285.50;94.40;;;;;;;-1.17;95.46;102036.67;661039;1304;138580;-82
2022/12/18 04:42:16;;;;;;;89.10;28.60;;;;;;;-0.95;95.22;102055.33;660743;1305;138722;-82
2022/12/18 04:57:19;;;;;;;70.20;24.00;;;;;;;-0.85;94.60;102077.18;660892;1313;138493;-82
2022/12/18 05:12:23;;;;;;;83.20;30.80;;;;;;;-0.91;94.10;102086.53;660746;1295;138762;-82
2022/12/18 05:27:26;;;;;;;62.80;23.20;;;;;;;-1.15;94.23;102103.12;660998;1313;138905;-82
2022/12/18 05:42:30;;;;;;;154.60;59.50;;;;;;;-1.24;94.30;102124.48;660716;1311;138716;-83
2022/12/18 05:57:34;;;;;;;71.60;25.40;;;;;;;-1.32;94.34;102139.33;660702;1312;139373;-83
2022/12/18 06:12:37;;;;;;;69.40;23.60;;;;;;;-1.31;94.85;102148.23;660698;1305;138858;-82
2022/12/18 06:27:41;;;;;;;79.30;27.20;;;;;;;-1.56;94.33;102159.25;662550;1303;138919;-83
2022/12/18 06:42:45;;;;;;;89.00;37.80;;;;;;;-1.84;93.45;102190.16;661081;1310;138670;-83
2022/12/18 06:57:48;;;;;;;89.60;34.60;;;;;;;-2.21;92.26;102217.59;660910;1310;138846;-82
2022/12/18 07:12:52;;;;;;;94.00;35.40;;;;;;;-2.36;90.94;102232.91;660737;1311;138494;-82
2022/12/18 07:27:55;;;;;;;141.70;55.20;;;;;;;-2.39;89.92;102256.22;660830;1313;138801;-82
2022/12/18 07:42:58;;;;;;;82.90;33.70;;;;;;;-2.63;88.58;102284.88;660533;1313;138678;-82
2022/12/18 07:58:03;;;;;;;80.00;35.90;;;;;;;-2.71;87.87;102290.89;660564;1313;138715;-82
2022/12/18 08:13:07;;;;;;;77.60;31.70;;;;;;;-2.74;87.54;102296.88;660667;1312;138902;-82
2022/12/18 08:28:10;;;;;;;118.30;54.00;;;;;;;-2.53;87.47;102309.02;660433;1313;138460;-82
2022/12/18 08:58:36;;;;;;;106.00;51.90;;;;;;;-1.15;86.00;102362.92;660425;1305;139402;-83
2022/12/18 09:13:39;;;;;;;197.00;66.60;;;;;;;-0.59;85.97;102379.04;660394;1296;139105;-84
2022/12/18 09:28:43;;;;;;;190.00;66.70;;;;;;;0.31;86.84;102385.73;660566;1311;138991;-84
2022/12/18 09:43:52;;;;;;;484.60;169.20;;;;;;;0.81;84.86;102391.15;660370;1313;138700;-84
2022/12/18 09:58:59;;;;;;;222.60;80.60;;;;;;;1.27;84.48;102379.29;660683;1305;139195;-84
2022/12/18 10:14:02;;;;;;;101.10;42.80;;;;;;;1.38;82.62;102378.59;660520;1312;138380;-85
2022/12/18 10:29:14;;;;;;;160.90;61.60;;;;;;;1.77;82.03;102378.13;660302;1312;138432;-84
2022/12/18 10:44:24;;;;;;;150.30;61.60;;;;;;;2.09;80.65;102366.31;660343;1312;138606;-85
2022/12/18 10:59:27;;;;;;;183.00;64.70;;;;;;;2.63;81.21;102360.91;660113;1301;138707;-85
2022/12/18 11:14:33;;;;;;;116.90;49.40;;;;;;;3.25;79.74;102357.95;660193;1305;138266;-85
2022/12/18 11:29:39;;;;;;;90.30;39.10;;;;;;;3.80;78.21;102365.03;660321;1305;138964;-83
2022/12/18 11:44:52;;;;;;;105.70;49.20;;;;;;;4.02;75.68;102366.36;660795;1307;138194;-83
2022/12/18 12:00:16;;;;;;;109.10;54.50;;;;;;;3.73;73.79;102394.80;660024;1307;138804;-84
2022/12/18 12:15:43;;;;;;;109.30;48.60;;;;;;;2.44;70.80;102410.48;660528;1309;138210;-84
2022/12/18 12:31:05;;;;;;;105.80;43.60;;;;;;;1.13;71.90;102429.29;660302;1312;138838;-85
2022/12/18 12:46:11;;;;;;;109.40;39.10;;;;;;;0.20;73.51;102434.06;660701;1299;138596;-84
2022/12/18 13:01:28;;;;;;;95.50;33.30;;;;;;;-0.20;74.31;102427.73;660375;1305;138799;-84
2022/12/18 13:16:32;;;;;;;111.60;39.00;;;;;;;-0.65;76.94;102426.69;660692;1308;138476;-83
2022/12/18 13:31:39;;;;;;;113.50;39.10;;;;;;;-0.73;77.67;102451.52;660978;1310;139707;-83
2022/12/18 13:46:48;;;;;;;119.20;45.30;;;;;;;-1.16;79.35;102481.09;661045;1305;139021;-84
2022/12/18 14:01:53;;;;;;;115.30;39.90;;;;;;;-1.17;79.69;102485.05;660523;1299;139124;-83
2022/12/18 14:16:59;;;;;;;99.20;34.20;;;;;;;-1.38;80.58;102500.91;661801;1303;138694;-83
2022/12/18 14:32:16;;;;;;;80.30;29.20;;;;;;;-1.56;81.66;102522.92;660501;1294;138949;-83
2022/12/18 14:47:21;;;;;;;176.40;62.30;;;;;;;-1.85;82.60;102510.27;660718;1312;138948;-83
2022/12/18 15:02:27;;;;;;;89.10;32.90;;;;;;;-2.15;84.09;102516.60;660658;1307;138757;-83
2022/12/18 15:17:31;;;;;;;96.50;32.30;;;;;;;-2.14;84.10;102527.23;662436;1303;139421;-83
2022/12/18 15:32:36;;;;;;;80.00;28.00;;;;;;;-2.13;84.55;102531.35;660898;1312;139084;-83
2022/12/18 15:47:42;;;;;;;123.30;37.20;;;;;;;-2.19;84.75;102532.55;660783;1312;139402;-83
2022/12/18 16:02:45;;;;;;;90.20;30.10;;;;;;;-2.30;85.08;102539.20;660854;1309;138964;-84
2022/12/18 16:17:49;;;;;;;101.10;38.60;;;;;;;-2.20;84.50;102532.89;660669;1289;138910;-82
2022/12/18 16:32:56;;;;;;;228.20;90.90;;;;;;;-2.39;84.48;102536.80;660943;1301;139102;-82
2022/12/18 16:48:00;;;;;;;91.90;31.70;;;;;;;-2.63;85.89;102539.46;660901;1310;139032;-83
2022/12/18 17:03:03;;;;;;;109.60;34.80;;;;;;;-3.00;86.43;102557.30;660833;1292;138791;-82
2022/12/18 17:18:07;;;;;;;103.90;34.50;;;;;;;-2.98;86.07;102577.36;660667;1312;139132;-83
2022/12/18 17:33:11;;;;;;;99.70;34.40;;;;;;;-3.22;85.59;102559.43;660998;1304;138905;-81
2022/12/18 17:48:14;;;;;;;104.90;35.00;;;;;;;-3.07;85.75;102536.23;660939;1311;139972;-81
2022/12/18 18:03:18;;;;;;;95.40;30.30;;;;;;;-3.10;85.53;102545.45;660889;1308;139470;-82
2022/12/18 18:18:22;;;;;;;100.00;31.10;;;;;;;-3.11;84.81;102524.39;660929;1312;138777;-82
2022/12/18 18:33:26;;;;;;;85.50;26.40;;;;;;;-3.32;85.36;102533.02;660883;1305;139078;-81
2022/12/18 18:48:33;;;;;;;87.20;30.20;;;;;;;-3.53;85.81;102526.89;660630;1310;139442;-82
2022/12/18 19:03:38;;;;;;;106.30;37.40;;;;;;;-3.60;86.53;102524.95;660600;1312;139162;-82
2022/12/18 19:18:42;;;;;;;88.70;28.00;;;;;;;-3.62;86.57;102543.42;660037;1298;140618;-82
2022/12/18 19:33:47;;;;;;;80.70;29.50;;;;;;;-3.75;86.97;102549.14;660242;1311;139336;-82
2022/12/18 19:48:51;;;;;;;89.50;25.50;;;;;;;-4.00;87.78;102562.79;659755;1298;139020;-83
2022/12/18 20:03:54;;;;;;;87.20;27.50;;;;;;;-3.99;88.81;102560.40;660528;1305;138744;-83
2022/12/18 20:19:00;;;;;;;91.20;28.60;;;;;;;-3.95;88.61;102581.48;660546;1298;139377;-83
2022/12/18 20:34:04;;;;;;;84.40;27.30;;;;;;;-4.27;89.31;102559.27;660571;1294;138782;-83
2022/12/18 20:49:10;;;;;;;94.00;27.80;;;;;;;-4.39;89.34;102557.97;660403;1311;140474;-83
2022/12/18 21:04:13;;;;;;;112.80;30.60;;;;;;;-4.55;89.87;102543.79;660577;1313;139188;-82
2022/12/18 21:19:22;;;;;;;99.80;31.00;;;;;;;-4.47;90.80;102528.15;660340;1306;140471;-83
2022/12/18 21:34:28;;;;;;;102.10;29.90;;;;;;;-4.43;90.09;102534.86;660644;1312;139614;-83
2022/12/18 21:49:32;;;;;;;99.10;30.20;;;;;;;-4.56;88.96;102549.59;660469;1313;139852;-83
2022/12/18 22:04:35;;;;;;;88.10;31.10;;;;;;;-4.79;88.69;102554.43;660773;1312;139520;-83
2022/12/18 22:19:39;;;;;;;79.50;28.40;;;;;;;-4.91;88.15;102546.10;660673;1311;139224;-82
2022/12/18 22:34:45;;;;;;;81.80;29.40;;;;;;;-4.89;88.01;102529.91;660583;1310;139051;-83
2022/12/18 22:49:48;;;;;;;107.60;35.40;;;;;;;-4.77;88.58;102528.33;660673;1313;139557;-83
2022/12/18 23:04:52;;;;;;;93.60;32.80;;;;;;;-4.69;88.85;102525.88;660761;1308;140325;-84
2022/12/18 23:19:55;;;;;;;105.50;34.20;;;;;;;-4.58;89.08;102517.27;660635;1312;139341;-83
2022/12/18 23:34:58;;;;;;;89.30;28.70;;;;;;;-4.51;89.24;102503.00;660781;1305;139629;-83
2022/12/18 23:50:02;;;;;;;87.30;28.30;;;;;;;-4.40;88.96;102490.80;660480;1312;139487;-84
